Time;durP1;ratioP1;P1;durP2;ratioP2;P2;SDS_P1;SDS_P2;PMS_P1;PMS_P2;Temp;Humidity;BMP_temperature;BMP_pressure;BME280_temperature;BME280_humidity;BME280_pressure;Samples;Min_cycle;Max_cycle;Signal;HPM_P1;HPM_P2
2021/06/03 00:00:39;;;;;;;7.38;2.78;;;22.60;45.10;;;;;;4992652;28;20459;-81
2021/06/03 00:03:06;;;;;;;3.78;2.53;;;22.50;45.00;;;;;;4974678;28;20041;-82
2021/06/03 00:05:37;;;;;;;2.42;2.00;;;22.40;45.50;;;;;;4986197;28;20030;-82
2021/06/03 00:08:03;;;;;;;3.53;2.50;;;22.40;45.70;;;;;;4983532;28;20096;-81
2021/06/03 00:10:29;;;;;;;5.05;2.20;;;22.40;46.30;;;;;;4996238;28;20445;-81
2021/06/03 00:12:55;;;;;;;2.55;2.25;;;22.50;46.40;;;;;;4996500;28;20044;-81
2021/06/03 00:15:21;;;;;;;5.45;2.63;;;22.30;47.00;;;;;;4962140;28;20026;-82
2021/06/03 00:17:46;;;;;;;2.50;2.30;;;22.40;47.20;;;;;;4982761;28;20027;-81
2021/06/03 00:20:14;;;;;;;3.67;2.47;;;22.30;47.60;;;;;;4980588;28;20421;-81
2021/06/03 00:22:39;;;;;;;3.75;2.83;;;22.20;48.00;;;;;;4997248;28;20501;-81
2021/06/03 00:25:06;;;;;;;4.07;2.85;;;22.20;48.00;;;;;;4966911;28;20029;-81
2021/06/03 00:27:31;;;;;;;3.95;2.47;;;22.10;47.80;;;;;;4981409;28;20117;-81
2021/06/03 00:29:57;;;;;;;3.42;2.80;;;22.20;48.30;;;;;;4983314;28;20115;-81
2021/06/03 00:32:22;;;;;;;4.55;2.42;;;22.20;49.10;;;;;;4984617;28;20063;-81
2021/06/03 00:34:48;;;;;;;2.75;2.22;;;22.20;48.90;;;;;;4997757;28;20042;-82
2021/06/03 00:37:13;;;;;;;4.50;2.67;;;22.20;49.20;;;;;;4980881;28;20038;-81
2021/06/03 00:39:39;;;;;;;3.55;2.70;;;22.20;49.60;;;;;;4983741;28;20301;-81
2021/06/03 00:42:04;;;;;;;5.97;2.80;;;22.20;50.10;;;;;;4966524;28;20030;-81
2021/06/03 00:44:30;;;;;;;3.25;2.67;;;22.10;49.40;;;;;;5003223;28;20046;-81
2021/06/03 00:46:55;;;;;;;4.25;2.70;;;22.10;49.70;;;;;;4994617;28;20080;-81
2021/06/03 00:49:21;;;;;;;3.35;2.58;;;22.20;49.80;;;;;;4998191;28;20033;-82
2021/06/03 00:51:46;;;;;;;3.08;2.67;;;22.30;50.30;;;;;;4964269;28;20026;-81
2021/06/03 00:54:12;;;;;;;2.90;2.30;;;22.50;49.90;;;;;;4980409;28;20041;-81
2021/06/03 00:56:38;;;;;;;8.30;2.45;;;22.40;50.50;;;;;;4982587;28;20029;-81
2021/06/03 00:59:04;;;;;;;6.10;2.83;;;22.40;50.90;;;;;;4999346;28;20438;-81
2021/06/03 01:01:30;;;;;;;7.30;3.17;;;22.40;51.20;;;;;;4979211;28;20041;-81
2021/06/03 01:03:55;;;;;;;2.60;2.35;;;22.20;51.10;;;;;;4966189;28;20038;-81
2021/06/03 01:06:21;;;;;;;3.53;2.50;;;22.30;51.40;;;;;;4977926;28;20030;-81
2021/06/03 01:08:51;;;;;;;2.70;2.50;;;22.30;51.50;;;;;;4964329;28;20121;-81
2021/06/03 01:11:23;;;;;;;5.47;2.38;;;22.10;51.90;;;;;;4986433;28;20044;-81
2021/06/03 01:14:12;;;;;;;4.90;2.72;;;22.10;51.80;;;;;;5000670;28;20030;-81
2021/06/03 01:16:38;;;;;;;4.05;2.50;;;22.00;52.50;;;;;;4994318;28;20197;-81
2021/06/03 01:19:07;;;;;;;3.88;3.00;;;21.90;52.10;;;;;;4981683;28;20109;-81
2021/06/03 01:21:41;;;;;;;3.70;2.55;;;21.90;52.80;;;;;;4980407;28;20036;-81
2021/06/03 01:24:42;;;;;;;4.75;2.58;;;21.80;52.10;;;;;;4996509;28;20343;-81
2021/06/03 01:27:13;;;;;;;3.58;2.10;;;21.80;53.20;;;;;;4988144;28;20083;-81
2021/06/03 01:29:52;;;;;;;3.33;2.53;;;21.70;52.30;;;;;;4995442;28;20505;-81
2021/06/03 01:32:18;;;;;;;2.67;2.47;;;21.80;52.80;;;;;;4992986;28;20030;-81
2021/06/03 01:34:44;;;;;;;6.90;2.10;;;21.70;53.00;;;;;;4963280;28;20034;-81
2021/06/03 01:37:09;;;;;;;4.50;3.25;;;21.80;53.00;;;;;;4996677;28;20046;-81
2021/06/03 01:39:35;;;;;;;3.05;2.50;;;21.70;53.00;;;;;;4992629;28;20030;-81
2021/06/03 01:42:01;;;;;;;3.10;2.85;;;21.60;53.40;;;;;;4965102;28;21513;-81
2021/06/03 01:44:26;;;;;;;6.88;2.92;;;21.60;53.70;;;;;;4986012;28;20037;-81
2021/06/03 01:46:52;;;;;;;4.57;2.83;;;21.50;54.50;;;;;;4981682;28;20030;-81
2021/06/03 01:49:18;;;;;;;3.28;2.97;;;21.40;53.40;;;;;;4996244;28;20481;-81
2021/06/03 01:51:44;;;;;;;6.50;2.55;;;21.50;54.00;;;;;;4970335;28;20050;-81
2021/06/03 01:54:09;;;;;;;2.92;2.60;;;21.30;54.00;;;;;;4983822;28;20038;-81
2021/06/03 01:56:36;;;;;;;4.30;2.95;;;21.30;54.60;;;;;;4964630;28;20083;-81
2021/06/03 01:59:01;;;;;;;3.00;2.53;;;21.10;54.70;;;;;;4998317;28;20026;-81
2021/06/03 02:01:27;;;;;;;4.32;2.85;;;21.10;54.80;;;;;;4983229;28;20144;-81
2021/06/03 02:03:52;;;;;;;3.65;2.60;;;21.00;54.90;;;;;;4982933;28;20029;-81
2021/06/03 02:06:18;;;;;;;4.93;3.13;;;21.10;55.20;;;;;;4965057;28;20026;-81
2021/06/03 02:08:43;;;;;;;3.05;2.72;;;21.00;56.10;;;;;;4963876;28;20072;-81
2021/06/03 02:11:09;;;;;;;6.90;2.88;;;20.90;55.80;;;;;;4964485;28;20057;-81
2021/06/03 02:13:42;;;;;;;3.88;3.45;;;20.90;56.10;;;;;;4982305;28;20026;-81
2021/06/03 02:16:28;;;;;;;7.50;3.45;;;20.80;55.10;;;;;;4982639;28;20353;-81
2021/06/03 02:18:57;;;;;;;7.47;3.05;;;20.80;55.90;;;;;;4980709;28;20446;-81
2021/06/03 02:21:22;;;;;;;3.47;3.17;;;20.70;56.00;;;;;;4970194;28;20030;-80
2021/06/03 02:23:48;;;;;;;4.40;2.85;;;20.70;55.70;;;;;;4990035;28;20084;-84
2021/06/03 02:26:14;;;;;;;5.13;2.90;;;20.70;55.50;;;;;;4966700;28;20033;-83
2021/06/03 02:28:40;;;;;;;3.25;2.90;;;20.70;56.30;;;;;;4983066;28;20053;-84
2021/06/03 02:31:05;;;;;;;4.07;2.88;;;20.70;55.90;;;;;;4983086;28;20034;-81
2021/06/03 02:33:31;;;;;;;4.50;3.20;;;20.50;57.30;;;;;;4986284;28;20480;-80
2021/06/03 02:35:57;;;;;;;3.45;3.03;;;20.50;56.50;;;;;;4995231;28;20038;-80
2021/06/03 02:38:24;;;;;;;5.85;3.40;;;20.50;56.70;;;;;;4993673;28;20485;-81
2021/06/03 02:40:51;;;;;;;4.93;2.75;;;20.60;57.60;;;;;;4965067;28;20064;-81
2021/06/03 02:43:16;;;;;;;3.70;2.53;;;20.50;56.80;;;;;;4968989;28;20522;-81
2021/06/03 02:45:42;;;;;;;5.00;3.05;;;20.50;56.70;;;;;;4979638;28;20038;-81
2021/06/03 02:48:07;;;;;;;4.55;3.05;;;20.50;57.10;;;;;;4961221;28;20052;-80
2021/06/03 02:50:33;;;;;;;3.45;2.53;;;20.50;58.50;;;;;;4982172;28;20045;-81
2021/06/03 02:52:58;;;;;;;3.65;2.72;;;20.50;58.20;;;;;;4994373;28;20409;-80
2021/06/03 02:55:24;;;;;;;3.15;2.40;;;20.50;58.20;;;;;;4967651;28;20120;-81
2021/06/03 02:57:50;;;;;;;3.65;3.30;;;20.40;58.20;;;;;;4966358;28;20030;-81
2021/06/03 03:00:27;;;;;;;3.15;2.47;;;20.50;58.00;;;;;;4979930;28;20046;-81
2021/06/03 03:02:53;;;;;;;4.13;3.08;;;20.40;57.60;;;;;;4967989;28;20032;-81
2021/06/03 03:05:19;;;;;;;4.93;3.28;;;20.40;58.50;;;;;;4984870;28;20460;-81
2021/06/03 03:07:44;;;;;;;5.28;3.28;;;20.30;59.10;;;;;;4990136;28;20045;-80
2021/06/03 03:10:13;;;;;;;4.55;2.88;;;20.20;58.30;;;;;;4993541;28;20041;-81
2021/06/03 03:12:38;;;;;;;3.38;2.75;;;20.30;58.30;;;;;;4981498;28;20022;-81
2021/06/03 03:15:05;;;;;;;4.18;2.67;;;20.30;58.80;;;;;;4969511;28;20506;-81
2021/06/03 03:17:31;;;;;;;5.90;3.38;;;20.30;58.50;;;;;;4981766;28;20228;-81
2021/06/03 03:19:56;;;;;;;4.55;2.70;;;20.20;58.50;;;;;;4968821;28;20549;-81
2021/06/03 03:22:22;;;;;;;3.67;3.38;;;20.20;59.20;;;;;;4971352;28;20549;-81
2021/06/03 03:24:47;;;;;;;3.95;3.10;;;20.30;59.50;;;;;;4974017;28;20041;-81
2021/06/03 03:27:13;;;;;;;5.90;2.80;;;20.20;59.20;;;;;;4968366;28;20030;-81
2021/06/03 03:29:39;;;;;;;4.30;3.00;;;20.20;59.50;;;;;;4966406;28;20034;-81
2021/06/03 03:32:05;;;;;;;3.53;2.88;;;20.20;59.20;;;;;;4968198;28;20034;-81
2021/06/03 03:34:32;;;;;;;4.85;2.67;;;20.20;59.20;;;;;;4967438;28;20371;-81
2021/06/03 03:36:58;;;;;;;5.95;2.50;;;20.20;58.50;;;;;;4983461;28;20066;-81
2021/06/03 03:39:23;;;;;;;3.38;2.55;;;20.20;59.40;;;;;;4974374;28;20062;-81
2021/06/03 03:41:49;;;;;;;4.90;2.97;;;20.30;58.90;;;;;;4985085;28;20114;-81
2021/06/03 03:44:14;;;;;;;2.75;2.22;;;20.20;59.40;;;;;;5000780;28;20056;-81
2021/06/03 03:46:40;;;;;;;3.08;2.53;;;20.20;58.80;;;;;;4280280;28;10000022;-81
2021/06/03 03:49:05;;;;;;;4.22;2.47;;;20.20;58.70;;;;;;4998600;28;20042;-80
2021/06/03 03:51:31;;;;;;;3.17;2.28;;;20.10;59.70;;;;;;4985410;28;20577;-81
2021/06/03 03:53:56;;;;;;;4.85;2.72;;;20.00;59.10;;;;;;4977391;28;20059;-80
2021/06/03 03:56:22;;;;;;;3.85;2.55;;;20.00;59.40;;;;;;4979806;28;20080;-81
2021/06/03 03:58:49;;;;;;;3.10;2.50;;;20.00;59.40;;;;;;4978130;28;20027;-80
2021/06/03 04:01:14;;;;;;;4.55;2.58;;;19.90;59.20;;;;;;4986962;28;20036;-80
2021/06/03 04:03:41;;;;;;;2.72;2.42;;;20.00;59.70;;;;;;4985164;28;20030;-81
2021/06/03 04:06:07;;;;;;;3.08;2.78;;;20.00;59.90;;;;;;4966733;28;20038;-81
2021/06/03 04:08:32;;;;;;;4.53;2.70;;;20.00;59.50;;;;;;4965583;28;20032;-80
2021/06/03 04:10:58;;;;;;;5.10;2.72;;;20.00;60.10;;;;;;4968349;28;20026;-81
2021/06/03 04:13:24;;;;;;;3.92;2.40;;;20.00;59.90;;;;;;4984163;28;20030;-81
2021/06/03 04:15:49;;;;;;;3.33;2.50;;;20.00;59.80;;;;;;4965087;28;20023;-81
2021/06/03 04:18:15;;;;;;;3.65;2.15;;;20.10;59.60;;;;;;4984588;28;20037;-80
2021/06/03 04:20:40;;;;;;;3.10;2.45;;;20.10;59.60;;;;;;4967114;28;20033;-81
2021/06/03 04:23:06;;;;;;;3.05;2.25;;;20.10;59.10;;;;;;4983897;28;20041;-81
2021/06/03 04:25:31;;;;;;;3.65;2.50;;;20.00;59.50;;;;;;4981227;28;20126;-81
2021/06/03 04:27:57;;;;;;;5.10;2.28;;;20.00;59.10;;;;;;4968865;28;20030;-81
2021/06/03 04:30:23;;;;;;;2.17;1.98;;;19.90;59.50;;;;;;4996997;28;20494;-81
2021/06/03 04:32:49;;;;;;;2.30;2.13;;;20.00;59.10;;;;;;4967911;28;20084;-80
2021/06/03 04:35:17;;;;;;;3.00;2.63;;;19.90;59.10;;;;;;4968854;28;20037;-81
2021/06/03 04:37:44;;;;;;;2.50;1.95;;;20.10;59.20;;;;;;4967830;28;20088;-81
2021/06/03 04:40:10;;;;;;;3.33;2.40;;;20.20;59.30;;;;;;4987321;28;20446;-81
2021/06/03 04:42:36;;;;;;;2.50;2.00;;;20.30;58.90;;;;;;4997173;28;20034;-81
2021/06/03 04:45:01;;;;;;;3.33;2.20;;;20.40;59.10;;;;;;4985808;28;20033;-81
2021/06/03 04:47:27;;;;;;;3.22;2.33;;;20.60;59.00;;;;;;4974452;28;20037;-81
2021/06/03 04:49:53;;;;;;;4.85;2.10;;;20.70;59.10;;;;;;5000722;28;20061;-81
2021/06/03 04:52:31;;;;;;;2.25;1.90;;;20.70;58.90;;;;;;4994056;28;20542;-79
2021/06/03 04:55:24;;;;;;;1.77;1.67;;;20.80;57.90;;;;;;4975424;28;20122;-81
2021/06/03 04:57:50;;;;;;;3.35;2.17;;;20.90;57.50;;;;;;4998618;28;20567;-80
2021/06/03 05:00:17;;;;;;;2.92;2.33;;;21.00;57.50;;;;;;4969057;28;20125;-81
2021/06/03 05:02:42;;;;;;;3.92;2.28;;;21.00;57.40;;;;;;4978791;28;20030;-80
2021/06/03 05:05:08;;;;;;;2.55;2.35;;;21.00;57.00;;;;;;4982954;28;20053;-80
2021/06/03 05:07:34;;;;;;;2.45;1.80;;;21.10;56.60;;;;;;4985287;28;20037;-81
2021/06/03 05:10:00;;;;;;;2.30;1.90;;;21.10;56.20;;;;;;4995122;28;20041;-81
2021/06/03 05:12:25;;;;;;;4.32;2.20;;;21.10;56.30;;;;;;4962967;28;20122;-81
2021/06/03 05:14:51;;;;;;;3.88;2.20;;;21.30;56.30;;;;;;4981014;28;20061;-81
2021/06/03 05:17:16;;;;;;;2.70;2.13;;;21.50;56.40;;;;;;4979811;28;20048;-81
2021/06/03 05:19:42;;;;;;;2.47;2.13;;;21.60;56.60;;;;;;4970797;28;20125;-81
2021/06/03 05:22:07;;;;;;;2.15;2.00;;;21.70;56.00;;;;;;4964333;28;20121;-81
2021/06/03 05:24:33;;;;;;;2.92;2.47;;;22.00;56.10;;;;;;4988000;28;20030;-81
2021/06/03 05:26:59;;;;;;;5.88;2.35;;;22.20;56.50;;;;;;4965921;28;20034;-81
2021/06/03 05:29:25;;;;;;;3.63;2.28;;;22.40;56.40;;;;;;4975586;28;20133;-81
2021/06/03 05:31:52;;;;;;;1.80;1.70;;;22.50;56.00;;;;;;4981344;28;20405;-81
2021/06/03 05:34:29;;;;;;;4.30;2.17;;;22.70;54.40;;;;;;5072392;27;20575;-81
2021/06/03 05:36:54;;;;;;;6.15;2.20;;;23.10;55.30;;;;;;5018857;28;20080;-81
2021/06/03 05:39:20;;;;;;;3.33;2.08;;;23.60;56.50;;;;;;5007826;28;20033;-81
2021/06/03 05:41:46;;;;;;;4.18;1.98;;;24.00;56.70;;;;;;5032180;28;20025;-81
2021/06/03 05:44:12;;;;;;;2.85;2.30;;;24.50;56.90;;;;;;5022442;28;20032;-80
2021/06/03 05:46:37;;;;;;;2.72;1.80;;;24.80;57.20;;;;;;5026442;28;20056;-80
2021/06/03 05:49:04;;;;;;;3.20;2.78;;;24.90;55.30;;;;;;5035203;28;20029;-80
2021/06/03 05:51:30;;;;;;;3.30;1.83;;;25.30;56.50;;;;;;5052075;28;20489;-80
2021/06/03 05:53:56;;;;;;;2.15;1.95;;;25.50;56.00;;;;;;5036003;28;20124;-81
2021/06/03 05:56:22;;;;;;;3.95;2.70;;;25.40;52.60;;;;;;5054118;28;20120;-80
2021/06/03 05:58:48;;;;;;;3.55;2.42;;;25.60;56.10;;;;;;5036938;28;20037;-80
2021/06/03 06:01:13;;;;;;;1.73;1.63;;;25.20;53.60;;;;;;5025846;28;20429;-80
2021/06/03 06:03:50;;;;;;;3.22;2.30;;;25.10;53.60;;;;;;5026301;28;20133;-81
2021/06/03 06:08:41;;;;;;;4.18;2.50;;;24.90;54.40;;;;;;5050383;28;20144;-81
2021/06/03 06:11:06;;;;;;;2.75;2.53;;;24.90;54.40;;;;;;5040169;28;20044;-80
2021/06/03 06:13:32;;;;;;;2.38;2.17;;;24.70;55.20;;;;;;5038056;28;20080;-81
2021/06/03 06:15:58;;;;;;;5.90;2.03;;;24.10;56.40;;;;;;5037914;28;20207;-81
2021/06/03 06:18:23;;;;;;;3.28;2.80;;;24.40;56.80;;;;;;5049786;28;20115;-80
2021/06/03 06:20:49;;;;;;;5.47;2.55;;;24.40;57.30;;;;;;5034804;28;20037;-81
2021/06/03 06:23:16;;;;;;;3.42;2.67;;;24.60;56.10;;;;;;5055154;28;20123;-81
2021/06/03 06:25:42;;;;;;;4.90;2.67;;;24.80;56.40;;;;;;5053165;28;20436;-81
2021/06/03 06:28:09;;;;;;;5.65;2.90;;;24.90;55.40;;;;;;5054789;28;20082;-81
2021/06/03 06:30:34;;;;;;;2.85;2.15;;;24.90;56.20;;;;;;5034627;28;20039;-81
2021/06/03 06:33:00;;;;;;;3.92;2.55;;;24.40;56.60;;;;;;5040223;28;20064;-81
2021/06/03 06:35:25;;;;;;;3.25;2.92;;;24.50;57.60;;;;;;5048229;28;20108;-81
2021/06/03 06:37:52;;;;;;;3.75;3.05;;;25.00;56.90;;;;;;5051710;28;20033;-81
2021/06/03 06:40:17;;;;;;;3.25;2.35;;;25.50;56.50;;;;;;5037560;28;20040;-81
2021/06/03 06:42:43;;;;;;;3.00;2.65;;;25.10;56.40;;;;;;5038268;28;20053;-82
2021/06/03 06:45:09;;;;;;;4.55;2.75;;;24.80;57.30;;;;;;5038489;28;20380;-81
2021/06/03 06:47:35;;;;;;;3.33;2.85;;;24.70;58.10;;;;;;5027127;28;20029;-80
2021/06/03 06:50:06;;;;;;;7.75;3.50;;;24.90;57.40;;;;;;5022640;28;20482;-81
2021/06/03 06:52:31;;;;;;;8.25;2.90;;;25.30;56.40;;;;;;5028610;28;20033;-81
2021/06/03 06:54:57;;;;;;;5.45;3.15;;;24.60;58.30;;;;;;5005327;28;20056;-81
2021/06/03 06:57:22;;;;;;;6.75;2.60;;;24.70;58.60;;;;;;5038629;28;20021;-80
2021/06/03 06:59:48;;;;;;;3.63;2.53;;;24.70;58.20;;;;;;5023813;28;20393;-81
2021/06/03 07:02:13;;;;;;;3.08;2.70;;;24.50;59.00;;;;;;5021232;28;20168;-83
2021/06/03 07:04:39;;;;;;;4.93;3.10;;;24.30;59.60;;;;;;5020281;28;20109;-82
2021/06/03 07:07:04;;;;;;;5.68;3.15;;;24.30;60.20;;;;;;5028028;28;20032;-82
2021/06/03 07:09:30;;;;;;;3.58;2.90;;;24.80;58.80;;;;;;5040423;28;20036;-82
2021/06/03 07:11:55;;;;;;;4.22;2.72;;;24.90;58.90;;;;;;5000270;28;20127;-82
2021/06/03 07:14:21;;;;;;;3.88;2.88;;;24.70;59.60;;;;;;5019453;28;20048;-83
2021/06/03 07:16:46;;;;;;;4.15;3.03;;;24.50;59.70;;;;;;5017885;28;20040;-82
2021/06/03 07:19:12;;;;;;;3.35;2.50;;;24.70;59.60;;;;;;5024051;28;20403;-83
2021/06/03 07:21:37;;;;;;;4.22;3.17;;;24.80;59.20;;;;;;5037336;28;20047;-82
2021/06/03 07:24:03;;;;;;;4.07;2.88;;;24.80;59.50;;;;;;5043800;28;20032;-82
2021/06/03 07:26:29;;;;;;;4.50;2.70;;;24.90;59.30;;;;;;5004009;28;20038;-82
2021/06/03 07:28:55;;;;;;;2.72;2.50;;;24.90;59.30;;;;;;4988796;28;20057;-82
2021/06/03 07:31:20;;;;;;;4.28;2.92;;;25.00;59.50;;;;;;5020682;28;20040;-82
2021/06/03 07:33:46;;;;;;;4.25;3.10;;;25.10;59.70;;;;;;5033606;28;20041;-82
2021/06/03 07:36:11;;;;;;;4.82;2.72;;;25.40;58.70;;;;;;5020054;28;20030;-82
2021/06/03 07:38:37;;;;;;;5.47;3.55;;;25.50;58.60;;;;;;5000396;28;20044;-83
2021/06/03 07:41:03;;;;;;;4.13;2.85;;;25.60;58.60;;;;;;5019665;28;20514;-81
2021/06/03 07:43:29;;;;;;;5.97;3.50;;;25.80;58.30;;;;;;4992355;28;20026;-83
2021/06/03 07:45:55;;;;;;;3.38;3.05;;;25.60;58.90;;;;;;5007321;28;20111;-82
2021/06/03 07:48:21;;;;;;;5.05;2.72;;;25.40;58.90;;;;;;5039672;28;20490;-83
2021/06/03 07:50:46;;;;;;;4.22;3.08;;;26.00;58.40;;;;;;5003264;28;20160;-82
2021/06/03 07:53:12;;;;;;;4.07;3.30;;;26.00;58.50;;;;;;5002094;28;20410;-83
2021/06/03 07:55:37;;;;;;;3.90;3.00;;;26.30;58.60;;;;;;5019050;28;20079;-83
2021/06/03 07:58:05;;;;;;;4.57;2.85;;;26.70;57.60;;;;;;5023712;28;20512;-81
2021/06/03 08:00:31;;;;;;;5.03;2.70;;;27.40;56.30;;;;;;5035031;28;20415;-81
2021/06/03 08:02:57;;;;;;;3.60;2.90;;;28.20;54.80;;;;;;5020435;28;20025;-83
2021/06/03 08:05:23;;;;;;;3.60;2.65;;;28.10;54.80;;;;;;5041646;28;20041;-83
2021/06/03 08:07:49;;;;;;;3.13;2.83;;;28.70;55.50;;;;;;5002604;28;20038;-81
2021/06/03 08:10:16;;;;;;;5.47;2.90;;;28.70;53.70;;;;;;5010756;28;20375;-81
2021/06/03 08:12:42;;;;;;;3.17;2.88;;;28.70;53.40;;;;;;5028352;28;20032;-80
2021/06/03 08:15:08;;;;;;;3.38;2.40;;;29.40;54.60;;;;;;5027531;28;20029;-81
2021/06/03 08:17:34;;;;;;;4.75;2.53;;;29.30;52.20;;;;;;5032301;28;20030;-80
2021/06/03 08:20:00;;;;;;;3.25;2.80;;;29.50;52.20;;;;;;5027628;28;20021;-80
2021/06/03 08:22:25;;;;;;;4.85;3.20;;;29.50;53.00;;;;;;5042272;28;20405;-79
2021/06/03 08:24:51;;;;;;;4.32;2.92;;;28.70;52.70;;;;;;5019181;28;20049;-79
2021/06/03 08:27:16;;;;;;;4.95;3.08;;;28.80;53.50;;;;;;5012106;28;20025;-79
2021/06/03 08:29:42;;;;;;;5.45;2.95;;;29.10;52.40;;;;;;4985144;28;20091;-79
2021/06/03 08:32:07;;;;;;;3.28;2.90;;;29.00;52.40;;;;;;5037865;28;20106;-80
2021/06/03 08:34:33;;;;;;;8.13;3.40;;;29.50;51.90;;;;;;5007420;28;20026;-79
2021/06/03 08:36:58;;;;;;;5.07;2.72;;;29.20;52.10;;;;;;5020491;28;20029;-79
2021/06/03 08:39:24;;;;;;;2.90;2.67;;;29.00;52.10;;;;;;5023721;28;20052;-79
2021/06/03 08:41:51;;;;;;;4.28;2.55;;;29.30;52.20;;;;;;5021683;28;20044;-79
2021/06/03 08:44:16;;;;;;;4.80;3.30;;;29.30;51.90;;;;;;5043475;28;20025;-78
2021/06/03 08:46:42;;;;;;;4.15;3.22;;;29.30;53.00;;;;;;5020673;28;20029;-79
2021/06/03 08:49:08;;;;;;;5.50;3.92;;;29.20;52.10;;;;;;5033067;28;20021;-79
2021/06/03 08:51:34;;;;;;;3.35;3.03;;;28.20;54.00;;;;;;5017225;28;20261;-79
2021/06/03 08:53:59;;;;;;;5.38;3.13;;;28.50;53.70;;;;;;5018177;28;20044;-80
2021/06/03 08:56:25;;;;;;;3.10;2.80;;;28.30;54.10;;;;;;5031978;28;20037;-79
2021/06/03 08:58:53;;;;;;;4.07;3.33;;;28.80;53.20;;;;;;5006930;28;20130;-79
2021/06/03 09:01:19;;;;;;;5.47;3.50;;;28.00;54.30;;;;;;5023766;28;20032;-79
2021/06/03 09:03:45;;;;;;;3.42;2.95;;;27.60;55.40;;;;;;5024694;28;20512;-79
2021/06/03 09:06:13;;;;;;;6.65;3.42;;;28.40;54.60;;;;;;5038531;28;20033;-78
2021/06/03 09:08:39;;;;;;;5.25;3.25;;;28.60;53.90;;;;;;5026851;28;20026;-79
2021/06/03 09:11:10;;;;;;;3.80;2.85;;;28.50;54.90;;;;;;5026453;28;20037;-78
2021/06/03 09:13:38;;;;;;;6.45;2.90;;;28.90;53.70;;;;;;5027110;28;20048;-79
2021/06/03 09:16:09;;;;;;;3.70;2.85;;;29.00;53.10;;;;;;5037387;28;20501;-78
2021/06/03 09:18:39;;;;;;;3.95;2.65;;;29.30;52.90;;;;;;5031439;28;20061;-78
2021/06/03 09:21:12;;;;;;;3.72;2.75;;;29.60;52.70;;;;;;5033537;28;20399;-78
2021/06/03 09:23:38;;;;;;;3.72;2.78;;;30.10;51.60;;;;;;5020024;28;20508;-79
2021/06/03 09:26:14;;;;;;;4.43;2.67;;;30.20;51.40;;;;;;5029323;28;20040;-77
2021/06/03 09:28:44;;;;;;;4.97;3.15;;;29.80;51.10;;;;;;5024174;28;20039;-78
2021/06/03 09:31:11;;;;;;;3.45;2.47;;;30.10;50.80;;;;;;5008927;28;20029;-78
2021/06/03 09:33:45;;;;;;;5.13;2.83;;;30.30;51.10;;;;;;5013480;28;20091;-80
2021/06/03 09:36:35;;;;;;;5.95;2.53;;;30.80;50.40;;;;;;5020525;28;20033;-78
2021/06/03 09:39:08;;;;;;;6.50;4.63;;;31.10;49.80;;;;;;5016174;28;20052;-78
2021/06/03 09:41:35;;;;;;;4.45;2.97;;;31.70;50.30;;;;;;5024647;28;20021;-77
2021/06/03 09:44:12;;;;;;;3.80;2.42;;;31.40;49.80;;;;;;5021671;28;20049;-78
2021/06/03 09:47:00;;;;;;;5.93;2.80;;;31.00;50.30;;;;;;5015699;28;20038;-80
2021/06/03 09:49:30;;;;;;;4.78;3.00;;;30.60;49.80;;;;;;5017055;28;20033;-78
2021/06/03 09:51:58;;;;;;;6.40;2.92;;;30.50;51.30;;;;;;5005955;28;20029;-77
2021/06/03 09:54:24;;;;;;;7.90;3.10;;;31.30;50.30;;;;;;5010522;28;20039;-78
2021/06/03 09:56:53;;;;;;;6.65;2.67;;;32.00;48.50;;;;;;5008239;28;20853;-78
2021/06/03 09:59:22;;;;;;;6.72;4.78;;;31.30;48.70;;;;;;5022192;28;20037;-77
2021/06/03 10:02:15;;;;;;;4.07;3.17;;;31.40;49.70;;;;;;5033451;28;20033;-77
2021/06/03 10:05:13;;;;;;;3.78;2.95;;;31.00;49.90;;;;;;5030386;28;20540;-79
2021/06/03 10:07:39;;;;;;;4.05;3.50;;;31.00;49.80;;;;;;5022355;28;20503;-77
2021/06/03 10:10:04;;;;;;;5.35;3.28;;;30.70;50.40;;;;;;5018605;28;20036;-78
2021/06/03 10:12:34;;;;;;;4.65;3.15;;;31.00;49.90;;;;;;5037902;28;20041;-77
2021/06/03 10:15:04;;;;;;;4.22;2.92;;;31.10;50.40;;;;;;5033001;28;20503;-78
2021/06/03 10:17:33;;;;;;;4.05;3.13;;;32.50;49.10;;;;;;5032441;28;20017;-77
2021/06/03 10:20:00;;;;;;;4.75;2.78;;;32.30;48.20;;;;;;5026325;28;20026;-77
2021/06/03 10:22:39;;;;;;;6.82;3.08;;;32.70;48.80;;;;;;5025198;28;20055;-78
2021/06/03 10:25:12;;;;;;;4.32;2.53;;;33.10;47.90;;;;;;5001703;28;20044;-78
2021/06/03 10:27:49;;;;;;;3.92;3.53;;;33.30;47.20;;;;;;5033593;28;20030;-77
2021/06/03 10:30:14;;;;;;;6.40;2.95;;;33.00;46.70;;;;;;5031963;28;20041;-77
2021/06/03 10:32:41;;;;;;;5.78;3.08;;;32.10;47.30;;;;;;5038394;28;20040;-79
2021/06/03 10:35:09;;;;;;;4.55;2.42;;;32.10;48.30;;;;;;5024364;28;20335;-78
2021/06/03 10:37:35;;;;;;;3.28;2.97;;;32.20;47.60;;;;;;5025937;28;20059;-77
2021/06/03 10:40:01;;;;;;;10.55;3.47;;;31.60;49.00;;;;;;5001972;28;20034;-78
2021/06/03 10:42:26;;;;;;;4.57;3.33;;;32.10;48.40;;;;;;5010571;28;20029;-79
2021/06/03 10:44:52;;;;;;;5.10;3.13;;;31.20;49.40;;;;;;5009138;28;20125;-78
2021/06/03 10:47:18;;;;;;;6.65;3.35;;;31.80;49.10;;;;;;5026078;28;20472;-79
2021/06/03 10:49:43;;;;;;;4.28;2.90;;;32.30;48.40;;;;;;5006136;28;20607;-77
2021/06/03 10:52:09;;;;;;;4.45;3.17;;;32.80;46.50;;;;;;5022769;28;20383;-78
2021/06/03 10:54:54;;;;;;;4.55;3.35;;;32.60;48.20;;;;;;5024683;28;20041;-78
2021/06/03 10:57:22;;;;;;;3.33;2.80;;;33.40;47.60;;;;;;5012875;28;21579;-78
2021/06/03 10:59:48;;;;;;;4.38;3.10;;;32.90;46.60;;;;;;5039101;28;20076;-79
2021/06/03 11:02:14;;;;;;;4.60;2.95;;;33.50;46.70;;;;;;5038022;28;20374;-77
2021/06/03 11:04:40;;;;;;;3.88;2.63;;;34.10;46.70;;;;;;5018878;28;20033;-76
2021/06/03 11:07:06;;;;;;;4.40;2.70;;;33.80;45.20;;;;;;5036079;28;20116;-77
2021/06/03 11:09:36;;;;;;;3.92;3.00;;;33.30;46.10;;;;;;4998387;28;20566;-76
2021/06/03 11:12:10;;;;;;;2.95;2.72;;;31.50;48.80;;;;;;5006149;28;20033;-77
2021/06/03 11:14:58;;;;;;;5.32;3.25;;;31.40;49.60;;;;;;5032858;28;20025;-78
2021/06/03 11:17:49;;;;;;;4.05;3.17;;;32.90;47.30;;;;;;5037695;28;20033;-78
2021/06/03 11:20:15;;;;;;;3.53;3.03;;;31.20;49.30;;;;;;5018986;28;20038;-77
2021/06/03 11:22:41;;;;;;;3.67;2.75;;;30.20;51.50;;;;;;5001412;28;20681;-78
2021/06/03 11:25:06;;;;;;;6.20;3.50;;;30.30;51.90;;;;;;5021365;28;20055;-79
2021/06/03 11:27:39;;;;;;;5.57;3.33;;;30.50;52.00;;;;;;5038052;28;20498;-77
2021/06/03 11:30:10;;;;;;;4.80;3.17;;;31.80;49.90;;;;;;5027583;28;20472;-77
2021/06/03 11:32:39;;;;;;;6.43;3.75;;;31.40;50.40;;;;;;5029228;28;20223;-77
2021/06/03 11:35:07;;;;;;;3.40;2.83;;;31.10;50.70;;;;;;5026644;28;20037;-78
2021/06/03 11:37:35;;;;;;;7.80;3.50;;;31.60;51.50;;;;;;4684454;28;9999966;-77
2021/06/03 11:40:09;;;;;;;3.05;2.83;;;30.70;52.40;;;;;;5034056;28;20460;-78
2021/06/03 11:42:40;;;;;;;3.10;2.80;;;31.30;51.40;;;;;;5035705;28;20040;-77
2021/06/03 11:45:11;;;;;;;4.15;2.90;;;30.50;51.80;;;;;;5015201;28;20156;-77
2021/06/03 11:47:36;;;;;;;3.58;2.90;;;29.90;52.80;;;;;;5029280;28;20676;-77
2021/06/03 11:50:06;;;;;;;4.00;2.80;;;30.40;52.60;;;;;;5035009;28;20066;-78
2021/06/03 11:52:32;;;;;;;6.20;2.70;;;31.10;50.70;;;;;;5024032;28;20124;-77
2021/06/03 11:54:58;;;;;;;3.28;2.33;;;31.20;49.80;;;;;;5016033;28;20108;-78
2021/06/03 11:57:28;;;;;;;4.28;2.70;;;30.60;50.90;;;;;;5014030;28;20124;-78
2021/06/03 11:59:57;;;;;;;3.13;2.83;;;30.20;52.10;;;;;;5016313;28;20045;-77
2021/06/03 12:02:39;;;;;;;4.43;2.90;;;30.10;52.30;;;;;;5017003;28;20036;-78
2021/06/03 12:05:13;;;;;;;3.03;2.35;;;30.40;51.60;;;;;;4995992;28;20029;-77
2021/06/03 12:07:59;;;;;;;4.32;2.38;;;31.00;50.70;;;;;;5040907;28;20021;-77
2021/06/03 12:10:30;;;;;;;;;;;32.10;48.40;;;;;;5035865;28;20033;-78
2021/06/03 12:12:56;;;;;;;2.88;2.17;;;31.70;48.20;;;;;;5038039;28;19916;-78
2021/06/03 12:15:25;;;;;;;2.53;2.33;;;32.10;48.50;;;;;;5041026;28;20492;-78
2021/06/03 12:17:55;;;;;;;3.03;2.25;;;32.20;47.10;;;;;;5023875;28;20033;-78
2021/06/03 12:20:21;;;;;;;3.50;2.50;;;31.50;48.80;;;;;;5020294;28;20451;-77
2021/06/03 12:22:46;;;;;;;3.08;2.15;;;31.50;48.80;;;;;;5013424;28;20159;-77
2021/06/03 12:25:12;;;;;;;2.97;2.03;;;32.20;48.00;;;;;;5034860;28;20033;-78
2021/06/03 12:27:46;;;;;;;2.88;2.58;;;31.50;48.60;;;;;;5027540;28;20041;-78
2021/06/03 12:30:17;;;;;;;2.50;2.30;;;31.70;49.20;;;;;;5021484;28;20156;-79
2021/06/03 12:33:10;;;;;;;4.45;2.63;;;32.70;47.30;;;;;;5034895;28;20186;-79
2021/06/03 12:35:46;;;;;;;3.55;2.60;;;33.00;46.90;;;;;;5024237;28;20269;-80
2021/06/03 12:38:25;;;;;;;3.65;2.45;;;33.50;46.80;;;;;;5039697;28;20025;-79
2021/06/03 12:40:51;;;;;;;3.53;2.55;;;33.60;45.90;;;;;;5032373;28;20029;-78
2021/06/03 12:43:16;;;;;;;3.08;1.90;;;34.30;46.30;;;;;;5034534;28;20088;-79
2021/06/03 12:45:42;;;;;;;6.22;2.40;;;35.10;45.90;;;;;;5022536;28;20428;-79
2021/06/03 12:48:09;;;;;;;2.65;2.00;;;34.80;44.60;;;;;;5036278;28;20506;-78
2021/06/03 12:50:38;;;;;;;2.60;2.15;;;35.00;43.40;;;;;;5024490;28;20029;-78
2021/06/03 12:53:11;;;;;;;3.70;2.47;;;34.30;44.90;;;;;;5036424;28;20047;-78